sensor_id;sensor_type;location;lat;lon;timestamp;temperature;humidity
2391;DHT22;22957;50.824;4.360;2022-09-02T00:01:20;19.80;99.90
2391;DHT22;22957;50.824;4.360;2022-09-02T00:03:49;19.70;99.90
2391;DHT22;22957;50.824;4.360;2022-09-02T00:06:16;19.40;99.90
2391;DHT22;22957;50.824;4.360;2022-09-02T00:08:43;19.30;99.90
2391;DHT22;22957;50.824;4.360;2022-09-02T00:11:14;19.30;99.90
2391;DHT22;22957;50.824;4.360;2022-09-02T00:13:40;19.20;99.90
2391;DHT22;22957;50.824;4.360;2022-09-02T00:16:06;19.30;99.90
2391;DHT22;22957;50.824;4.360;2022-09-02T00:18:32;19.20;99.90
2391;DHT22;22957;50.824;4.360;2022-09-02T00:20:58;19.00;99.90
2391;DHT22;22957;50.824;4.360;2022-09-02T00:23:24;19.10;99.90
2391;DHT22;22957;50.824;4.360;2022-09-02T00:25:49;19.00;99.90
2391;DHT22;22957;50.824;4.360;2022-09-02T00:28:15;19.10;99.90
2391;DHT22;22957;50.824;4.360;2022-09-02T00:30:43;19.00;99.90
2391;DHT22;22957;50.824;4.360;2022-09-02T00:33:10;18.90;99.90
2391;DHT22;22957;50.824;4.360;2022-09-02T00:35:36;19.00;99.90
2391;DHT22;22957;50.824;4.360;2022-09-02T00:38:02;19.10;99.90
2391;DHT22;22957;50.824;4.360;2022-09-02T00:40:29;18.80;99.90
2391;DHT22;22957;50.824;4.360;2022-09-02T00:42:55;18.70;99.90
2391;DHT22;22957;50.824;4.360;2022-09-02T00:45:20;18.50;99.90
2391;DHT22;22957;50.824;4.360;2022-09-02T00:47:46;18.60;99.90
2391;DHT22;22957;50.824;4.360;2022-09-02T00:50:18;18.60;99.90
2391;DHT22;22957;50.824;4.360;2022-09-02T00:52:49;18.50;99.90
2391;DHT22;22957;50.824;4.360;2022-09-02T00:55:29;18.50;99.90
2391;DHT22;22957;50.824;4.360;2022-09-02T00:58:07;18.50;99.90
2391;DHT22;22957;50.824;4.360;2022-09-02T01:00:37;18.50;99.90
2391;DHT22;22957;50.824;4.360;2022-09-02T01:03:07;18.50;99.90
2391;DHT22;22957;50.824;4.360;2022-09-02T01:05:36;18.60;99.90
2391;DHT22;22957;50.824;4.360;2022-09-02T01:08:03;18.60;99.90
2391;DHT22;22957;50.824;4.360;2022-09-02T01:10:33;18.60;99.90
2391;DHT22;22957;50.824;4.360;2022-09-02T01:13:13;18.40;99.90
2391;DHT22;22957;50.824;4.360;2022-09-02T01:15:43;18.60;99.90
2391;DHT22;22957;50.824;4.360;2022-09-02T01:18:14;18.50;99.90
2391;DHT22;22957;50.824;4.360;2022-09-02T01:20:41;18.40;99.90
2391;DHT22;22957;50.824;4.360;2022-09-02T01:23:07;18.30;99.90
2391;DHT22;22957;50.824;4.360;2022-09-02T01:25:34;18.40;99.90
2391;DHT22;22957;50.824;4.360;2022-09-02T01:28:04;18.30;99.90
2391;DHT22;22957;50.824;4.360;2022-09-02T01:30:33;18.30;99.90
2391;DHT22;22957;50.824;4.360;2022-09-02T01:32:59;18.40;99.90
2391;DHT22;22957;50.824;4.360;2022-09-02T01:35:27;18.40;99.90
2391;DHT22;22957;50.824;4.360;2022-09-02T01:37:55;18.50;99.90
2391;DHT22;22957;50.824;4.360;2022-09-02T01:40:24;18.30;99.90
2391;DHT22;22957;50.824;4.360;2022-09-02T01:42:58;18.50;99.90
2391;DHT22;22957;50.824;4.360;2022-09-02T01:45:27;18.30;99.90
2391;DHT22;22957;50.824;4.360;2022-09-02T01:47:54;18.40;99.90
2391;DHT22;22957;50.824;4.360;2022-09-02T01:50:21;18.60;99.90
2391;DHT22;22957;50.824;4.360;2022-09-02T01:52:47;18.50;99.90
2391;DHT22;22957;50.824;4.360;2022-09-02T01:55:13;18.60;99.90
2391;DHT22;22957;50.824;4.360;2022-09-02T01:57:38;18.50;99.90
2391;DHT22;22957;50.824;4.360;2022-09-02T02:00:07;18.60;99.90
2391;DHT22;22957;50.824;4.360;2022-09-02T02:02:33;18.50;99.90
2391;DHT22;22957;50.824;4.360;2022-09-02T02:04:59;18.70;99.90
2391;DHT22;22957;50.824;4.360;2022-09-02T02:07:25;18.70;99.90
2391;DHT22;22957;50.824;4.360;2022-09-02T02:09:50;18.60;99.90
2391;DHT22;22957;50.824;4.360;2022-09-02T02:12:17;18.70;99.90
2391;DHT22;22957;50.824;4.360;2022-09-02T02:14:44;18.70;99.90
2391;DHT22;22957;50.824;4.360;2022-09-02T02:17:10;18.80;99.90
2391;DHT22;22957;50.824;4.360;2022-09-02T02:19:35;18.60;99.90
2391;DHT22;22957;50.824;4.360;2022-09-02T02:22:02;18.50;99.90
2391;DHT22;22957;50.824;4.360;2022-09-02T02:24:28;18.80;99.90
2391;DHT22;22957;50.824;4.360;2022-09-02T02:26:54;18.20;99.90
2391;DHT22;22957;50.824;4.360;2022-09-02T02:29:20;18.50;99.90
2391;DHT22;22957;50.824;4.360;2022-09-02T02:31:46;18.50;99.90
2391;DHT22;22957;50.824;4.360;2022-09-02T02:34:12;18.40;99.90
2391;DHT22;22957;50.824;4.360;2022-09-02T02:36:38;18.20;99.90
2391;DHT22;22957;50.824;4.360;2022-09-02T02:39:05;18.00;99.90
2391;DHT22;22957;50.824;4.360;2022-09-02T02:41:32;18.10;99.90
2391;DHT22;22957;50.824;4.360;2022-09-02T02:43:58;18.30;99.90
2391;DHT22;22957;50.824;4.360;2022-09-02T02:46:24;18.20;99.90
2391;DHT22;22957;50.824;4.360;2022-09-02T02:48:49;18.10;99.90
2391;DHT22;22957;50.824;4.360;2022-09-02T02:51:15;18.30;99.90
2391;DHT22;22957;50.824;4.360;2022-09-02T02:53:41;18.30;99.90
2391;DHT22;22957;50.824;4.360;2022-09-02T02:56:07;18.10;99.90
2391;DHT22;22957;50.824;4.360;2022-09-02T02:58:33;18.20;99.90
2391;DHT22;22957;50.824;4.360;2022-09-02T03:00:59;18.10;99.90
2391;DHT22;22957;50.824;4.360;2022-09-02T03:03:26;18.40;99.90
2391;DHT22;22957;50.824;4.360;2022-09-02T03:05:52;18.50;99.90
2391;DHT22;22957;50.824;4.360;2022-09-02T03:08:19;18.50;99.90
2391;DHT22;22957;50.824;4.360;2022-09-02T03:10:49;18.70;99.90
2391;DHT22;22957;50.824;4.360;2022-09-02T03:13:19;18.60;99.90
2391;DHT22;22957;50.824;4.360;2022-09-02T03:15:46;18.90;99.90
2391;DHT22;22957;50.824;4.360;2022-09-02T03:18:12;19.00;99.90
2391;DHT22;22957;50.824;4.360;2022-09-02T03:20:39;19.20;99.90
2391;DHT22;22957;50.824;4.360;2022-09-02T03:23:05;19.40;99.90
2391;DHT22;22957;50.824;4.360;2022-09-02T03:25:32;19.50;99.90
2391;DHT22;22957;50.824;4.360;2022-09-02T03:27:59;19.50;99.90
2391;DHT22;22957;50.824;4.360;2022-09-02T03:30:26;19.50;99.90
2391;DHT22;22957;50.824;4.360;2022-09-02T03:32:55;19.40;99.90
2391;DHT22;22957;50.824;4.360;2022-09-02T03:35:22;19.50;99.90
2391;DHT22;22957;50.824;4.360;2022-09-02T03:37:49;19.30;99.90
2391;DHT22;22957;50.824;4.360;2022-09-02T03:40:21;19.40;99.90
2391;DHT22;22957;50.824;4.360;2022-09-02T03:42:47;19.50;99.90
2391;DHT22;22957;50.824;4.360;2022-09-02T03:45:15;19.30;99.90
2391;DHT22;22957;50.824;4.360;2022-09-02T03:47:43;19.30;99.90
2391;DHT22;22957;50.824;4.360;2022-09-02T03:50:26;19.20;99.90
2391;DHT22;22957;50.824;4.360;2022-09-02T03:52:55;18.90;99.90
2391;DHT22;22957;50.824;4.360;2022-09-02T03:55:22;18.60;99.90
2391;DHT22;22957;50.824;4.360;2022-09-02T03:57:48;18.30;99.90
2391;DHT22;22957;50.824;4.360;2022-09-02T04:00:17;18.20;99.90
2391;DHT22;22957;50.824;4.360;2022-09-02T04:02:46;18.20;99.90
2391;DHT22;22957;50.824;4.360;2022-09-02T04:05:13;17.80;99.90
2391;DHT22;22957;50.824;4.360;2022-09-02T04:07:40;17.90;99.90
2391;DHT22;22957;50.824;4.360;2022-09-02T04:10:09;18.00;99.90
2391;DHT22;22957;50.824;4.360;2022-09-02T04:12:37;17.80;99.90
2391;DHT22;22957;50.824;4.360;2022-09-02T04:15:05;17.90;99.90
2391;DHT22;22957;50.824;4.360;2022-09-02T04:17:34;18.00;99.90
2391;DHT22;22957;50.824;4.360;2022-09-02T04:20:00;18.10;99.90
2391;DHT22;22957;50.824;4.360;2022-09-02T04:22:26;18.20;99.90
2391;DHT22;22957;50.824;4.360;2022-09-02T04:24:53;18.10;99.90
2391;DHT22;22957;50.824;4.360;2022-09-02T04:27:20;18.30;99.90
2391;DHT22;22957;50.824;4.360;2022-09-02T04:29:47;18.40;99.90
2391;DHT22;22957;50.824;4.360;2022-09-02T04:32:13;18.50;99.90
2391;DHT22;22957;50.824;4.360;2022-09-02T04:34:40;18.50;99.90
2391;DHT22;22957;50.824;4.360;2022-09-02T04:37:07;18.40;99.90
2391;DHT22;22957;50.824;4.360;2022-09-02T04:39:33;18.20;99.90
2391;DHT22;22957;50.824;4.360;2022-09-02T04:41:59;18.00;99.90
2391;DHT22;22957;50.824;4.360;2022-09-02T04:44:26;17.80;99.90
2391;DHT22;22957;50.824;4.360;2022-09-02T04:46:52;17.60;99.90
2391;DHT22;22957;50.824;4.360;2022-09-02T04:49:20;17.80;99.90
2391;DHT22;22957;50.824;4.360;2022-09-02T04:51:46;17.80;99.90
2391;DHT22;22957;50.824;4.360;2022-09-02T04:54:13;18.10;99.90
2391;DHT22;22957;50.824;4.360;2022-09-02T04:56:39;17.80;99.90
2391;DHT22;22957;50.824;4.360;2022-09-02T04:59:05;17.90;99.90
2391;DHT22;22957;50.824;4.360;2022-09-02T05:01:33;18.10;99.90
2391;DHT22;22957;50.824;4.360;2022-09-02T05:04:00;18.00;99.90
2391;DHT22;22957;50.824;4.360;2022-09-02T05:06:27;18.50;99.90
2391;DHT22;22957;50.824;4.360;2022-09-02T05:08:56;18.30;99.90
2391;DHT22;22957;50.824;4.360;2022-09-02T05:11:27;18.50;99.90
2391;DHT22;22957;50.824;4.360;2022-09-02T05:13:54;18.30;99.90
2391;DHT22;22957;50.824;4.360;2022-09-02T05:16:30;18.70;99.90
2391;DHT22;22957;50.824;4.360;2022-09-02T05:18:58;18.90;99.90
2391;DHT22;22957;50.824;4.360;2022-09-02T05:21:26;18.90;99.90
2391;DHT22;22957;50.824;4.360;2022-09-02T05:23:52;19.10;99.90
2391;DHT22;22957;50.824;4.360;2022-09-02T05:26:19;19.10;99.90
2391;DHT22;22957;50.824;4.360;2022-09-02T05:28:45;19.10;99.90
2391;DHT22;22957;50.824;4.360;2022-09-02T05:31:15;19.20;99.90
2391;DHT22;22957;50.824;4.360;2022-09-02T05:33:43;19.10;99.90
2391;DHT22;22957;50.824;4.360;2022-09-02T05:36:11;19.00;99.90
2391;DHT22;22957;50.824;4.360;2022-09-02T05:38:38;18.60;99.90
2391;DHT22;22957;50.824;4.360;2022-09-02T05:41:06;19.00;99.90
2391;DHT22;22957;50.824;4.360;2022-09-02T05:43:42;18.90;99.90
2391;DHT22;22957;50.824;4.360;2022-09-02T05:46:15;19.20;99.90
2391;DHT22;22957;50.824;4.360;2022-09-02T05:48:43;19.40;99.90
2391;DHT22;22957;50.824;4.360;2022-09-02T05:51:27;19.80;99.90
2391;DHT22;22957;50.824;4.360;2022-09-02T05:53:56;20.10;99.90
2391;DHT22;22957;50.824;4.360;2022-09-02T05:56:23;20.60;99.90
2391;DHT22;22957;50.824;4.360;2022-09-02T05:58:49;21.20;99.90
2391;DHT22;22957;50.824;4.360;2022-09-02T06:01:17;21.20;99.90
2391;DHT22;22957;50.824;4.360;2022-09-02T06:03:43;21.40;99.90
2391;DHT22;22957;50.824;4.360;2022-09-02T06:06:09;21.20;99.90
2391;DHT22;22957;50.824;4.360;2022-09-02T06:08:35;21.60;99.90
2391;DHT22;22957;50.824;4.360;2022-09-02T06:11:02;21.60;99.90
2391;DHT22;22957;50.824;4.360;2022-09-02T06:13:29;21.10;99.90
2391;DHT22;22957;50.824;4.360;2022-09-02T06:15:56;21.90;99.90
2391;DHT22;22957;50.824;4.360;2022-09-02T06:18:22;21.70;99.90
2391;DHT22;22957;50.824;4.360;2022-09-02T06:20:48;21.90;99.90
2391;DHT22;22957;50.824;4.360;2022-09-02T06:23:15;22.40;99.90
2391;DHT22;22957;50.824;4.360;2022-09-02T06:25:44;22.20;99.90
2391;DHT22;22957;50.824;4.360;2022-09-02T06:28:11;22.70;99.90
2391;DHT22;22957;50.824;4.360;2022-09-02T06:30:42;22.90;99.90
2391;DHT22;22957;50.824;4.360;2022-09-02T06:33:09;23.20;99.90
2391;DHT22;22957;50.824;4.360;2022-09-02T06:35:37;23.50;99.90
2391;DHT22;22957;50.824;4.360;2022-09-02T06:38:04;23.90;99.90
2391;DHT22;22957;50.824;4.360;2022-09-02T06:40:30;24.10;99.90
2391;DHT22;22957;50.824;4.360;2022-09-02T06:42:55;23.50;99.90
2391;DHT22;22957;50.824;4.360;2022-09-02T06:45:21;23.00;99.90
2391;DHT22;22957;50.824;4.360;2022-09-02T06:47:49;23.00;99.90
2391;DHT22;22957;50.824;4.360;2022-09-02T06:50:15;22.70;99.90
2391;DHT22;22957;50.824;4.360;2022-09-02T06:52:41;22.60;99.90
2391;DHT22;22957;50.824;4.360;2022-09-02T06:55:08;22.20;99.90
2391;DHT22;22957;50.824;4.360;2022-09-02T06:57:35;22.30;99.90
2391;DHT22;22957;50.824;4.360;2022-09-02T07:00:08;23.10;99.90
2391;DHT22;22957;50.824;4.360;2022-09-02T07:02:35;21.80;99.90
2391;DHT22;22957;50.824;4.360;2022-09-02T07:05:02;21.20;99.90
2391;DHT22;22957;50.824;4.360;2022-09-02T07:07:41;22.30;99.90
2391;DHT22;22957;50.824;4.360;2022-09-02T07:10:11;22.80;99.90
2391;DHT22;22957;50.824;4.360;2022-09-02T07:12:38;23.20;99.90
2391;DHT22;22957;50.824;4.360;2022-09-02T07:15:05;22.50;99.90
2391;DHT22;22957;50.824;4.360;2022-09-02T07:17:31;23.50;99.90
2391;DHT22;22957;50.824;4.360;2022-09-02T07:19:57;23.90;99.90
2391;DHT22;22957;50.824;4.360;2022-09-02T07:22:28;23.70;99.90
2391;DHT22;22957;50.824;4.360;2022-09-02T07:24:54;24.80;99.90
2391;DHT22;22957;50.824;4.360;2022-09-02T07:27:20;24.70;99.90
2391;DHT22;22957;50.824;4.360;2022-09-02T07:29:47;24.70;99.90
2391;DHT22;22957;50.824;4.360;2022-09-02T07:32:17;25.90;99.90
2391;DHT22;22957;50.824;4.360;2022-09-02T07:34:43;25.30;99.90
2391;DHT22;22957;50.824;4.360;2022-09-02T07:37:09;26.20;99.90
2391;DHT22;22957;50.824;4.360;2022-09-02T07:39:34;25.60;99.90
2391;DHT22;22957;50.824;4.360;2022-09-02T07:42:00;25.70;99.90
2391;DHT22;22957;50.824;4.360;2022-09-02T07:44:26;25.70;99.90
2391;DHT22;22957;50.824;4.360;2022-09-02T07:46:52;26.60;99.90
2391;DHT22;22957;50.824;4.360;2022-09-02T07:49:19;26.50;99.20
2391;DHT22;22957;50.824;4.360;2022-09-02T07:51:47;26.30;99.50
2391;DHT22;22957;50.824;4.360;2022-09-02T07:54:16;25.40;99.90
2391;DHT22;22957;50.824;4.360;2022-09-02T07:56:44;25.30;99.90
2391;DHT22;22957;50.824;4.360;2022-09-02T07:59:10;25.70;99.90
2391;DHT22;22957;50.824;4.360;2022-09-02T08:01:37;25.80;99.90
2391;DHT22;22957;50.824;4.360;2022-09-02T08:04:04;26.10;99.90
2391;DHT22;22957;50.824;4.360;2022-09-02T08:06:31;26.10;99.90
2391;DHT22;22957;50.824;4.360;2022-09-02T08:08:57;25.90;99.90
2391;DHT22;22957;50.824;4.360;2022-09-02T08:11:23;25.80;99.90
2391;DHT22;22957;50.824;4.360;2022-09-02T08:13:50;25.40;99.90
2391;DHT22;22957;50.824;4.360;2022-09-02T08:16:16;25.30;99.90
2391;DHT22;22957;50.824;4.360;2022-09-02T08:18:42;26.20;99.90
2391;DHT22;22957;50.824;4.360;2022-09-02T08:21:07;26.70;99.90
2391;DHT22;22957;50.824;4.360;2022-09-02T08:23:34;26.10;99.90
2391;DHT22;22957;50.824;4.360;2022-09-02T08:26:01;26.40;99.90
2391;DHT22;22957;50.824;4.360;2022-09-02T08:28:27;26.70;99.90
2391;DHT22;22957;50.824;4.360;2022-09-02T08:30:54;26.70;99.90
2391;DHT22;22957;50.824;4.360;2022-09-02T08:33:22;26.40;99.90
2391;DHT22;22957;50.824;4.360;2022-09-02T08:35:48;26.80;99.90
2391;DHT22;22957;50.824;4.360;2022-09-02T08:38:14;28.40;98.30
2391;DHT22;22957;50.824;4.360;2022-09-02T08:40:41;29.40;96.40
2391;DHT22;22957;50.824;4.360;2022-09-02T08:43:31;29.40;96.40
2391;DHT22;22957;50.824;4.360;2022-09-02T08:46:03;28.30;96.60
2391;DHT22;22957;50.824;4.360;2022-09-02T08:51:12;29.70;95.40
2391;DHT22;22957;50.824;4.360;2022-09-02T08:56:35;28.80;95.70
2391;DHT22;22957;50.824;4.360;2022-09-02T08:59:01;29.80;94.50
2391;DHT22;22957;50.824;4.360;2022-09-02T09:01:59;30.00;94.20
2391;DHT22;22957;50.824;4.360;2022-09-02T09:15:55;27.50;96.50
2391;DHT22;22957;50.824;4.360;2022-09-02T09:18:36;27.60;97.20
2391;DHT22;22957;50.824;4.360;2022-09-02T09:21:02;27.20;97.40
2391;DHT22;22957;50.824;4.360;2022-09-02T09:23:31;28.00;97.10
2391;DHT22;22957;50.824;4.360;2022-09-02T09:28:40;30.50;93.70
2391;DHT22;22957;50.824;4.360;2022-09-02T09:31:18;31.30;92.60
2391;DHT22;22957;50.824;4.360;2022-09-02T09:34:00;29.30;93.50
2391;DHT22;22957;50.824;4.360;2022-09-02T09:36:52;29.50;93.80
2391;DHT22;22957;50.824;4.360;2022-09-02T09:41:46;26.80;97.40
2391;DHT22;22957;50.824;4.360;2022-09-02T09:47:23;28.00;95.60
2391;DHT22;22957;50.824;4.360;2022-09-02T09:50:14;28.20;95.30
2391;DHT22;22957;50.824;4.360;2022-09-02T09:52:40;28.40;96.50
2391;DHT22;22957;50.824;4.360;2022-09-02T09:55:20;28.20;96.10
2391;DHT22;22957;50.824;4.360;2022-09-02T09:57:48;27.90;96.30
2391;DHT22;22957;50.824;4.360;2022-09-02T10:00:29;28.30;95.50
2391;DHT22;22957;50.824;4.360;2022-09-02T10:03:01;28.70;95.70
2391;DHT22;22957;50.824;4.360;2022-09-02T10:05:31;29.10;94.70
2391;DHT22;22957;50.824;4.360;2022-09-02T10:08:00;29.90;93.30
2391;DHT22;22957;50.824;4.360;2022-09-02T10:10:29;29.60;93.60
2391;DHT22;22957;50.824;4.360;2022-09-02T10:13:00;29.00;93.80
2391;DHT22;22957;50.824;4.360;2022-09-02T10:15:42;29.00;94.10
2391;DHT22;22957;50.824;4.360;2022-09-02T10:18:27;28.90;94.00
2391;DHT22;22957;50.824;4.360;2022-09-02T10:21:11;29.90;93.30
2391;DHT22;22957;50.824;4.360;2022-09-02T10:24:01;29.20;92.80
2391;DHT22;22957;50.824;4.360;2022-09-02T10:26:48;30.50;92.40
2391;DHT22;22957;50.824;4.360;2022-09-02T10:35:07;27.50;96.30
2391;DHT22;22957;50.824;4.360;2022-09-02T10:40:25;28.60;94.30
2391;DHT22;22957;50.824;4.360;2022-09-02T10:43:07;29.90;93.30
2391;DHT22;22957;50.824;4.360;2022-09-02T10:45:35;29.40;92.80
2391;DHT22;22957;50.824;4.360;2022-09-02T10:48:29;29.00;93.50
2391;DHT22;22957;50.824;4.360;2022-09-02T10:56:26;26.60;95.40
2391;DHT22;22957;50.824;4.360;2022-09-02T10:59:03;26.40;95.70
2391;DHT22;22957;50.824;4.360;2022-09-02T11:04:52;27.70;94.80
2391;DHT22;22957;50.824;4.360;2022-09-02T11:10:36;26.30;96.40
2391;DHT22;22957;50.824;4.360;2022-09-02T11:13:08;26.70;96.70
2391;DHT22;22957;50.824;4.360;2022-09-02T11:16:04;26.90;95.70
2391;DHT22;22957;50.824;4.360;2022-09-02T11:22:23;26.20;97.00
2391;DHT22;22957;50.824;4.360;2022-09-02T11:25:06;26.10;97.50
2391;DHT22;22957;50.824;4.360;2022-09-02T11:27:39;25.80;97.60
2391;DHT22;22957;50.824;4.360;2022-09-02T11:30:15;25.80;97.70
2391;DHT22;22957;50.824;4.360;2022-09-02T11:33:08;27.20;96.60
2391;DHT22;22957;50.824;4.360;2022-09-02T11:35:37;27.60;95.60
2391;DHT22;22957;50.824;4.360;2022-09-02T11:43:46;28.20;94.00
2391;DHT22;22957;50.824;4.360;2022-09-02T11:46:38;28.50;93.60
2391;DHT22;22957;50.824;4.360;2022-09-02T11:55:08;26.60;94.10
2391;DHT22;22957;50.824;4.360;2022-09-02T11:57:36;26.60;94.40
2391;DHT22;22957;50.824;4.360;2022-09-02T12:00:12;26.00;94.60
2391;DHT22;22957;50.824;4.360;2022-09-02T12:02:48;26.90;94.30
2391;DHT22;22957;50.824;4.360;2022-09-02T12:08:10;26.60;93.30
2391;DHT22;22957;50.824;4.360;2022-09-02T12:15:37;27.80;92.50
2391;DHT22;22957;50.824;4.360;2022-09-02T12:18:28;28.30;91.70
2391;DHT22;22957;50.824;4.360;2022-09-02T12:26:14;26.80;91.60
2391;DHT22;22957;50.824;4.360;2022-09-02T12:28:42;27.60;91.30
2391;DHT22;22957;50.824;4.360;2022-09-02T12:31:40;28.20;91.00
2391;DHT22;22957;50.824;4.360;2022-09-02T12:50:09;30.50;83.90
2391;DHT22;22957;50.824;4.360;2022-09-02T12:52:48;30.80;82.50
2391;DHT22;22957;50.824;4.360;2022-09-02T12:55:29;31.30;80.60
2391;DHT22;22957;50.824;4.360;2022-09-02T12:58:19;31.50;78.10
2391;DHT22;22957;50.824;4.360;2022-09-02T13:01:12;31.70;76.70
2391;DHT22;22957;50.824;4.360;2022-09-02T13:17:16;27.70;78.40
2391;DHT22;22957;50.824;4.360;2022-09-02T13:31:26;30.30;73.80
2391;DHT22;22957;50.824;4.360;2022-09-02T13:36:44;29.20;75.60
2391;DHT22;22957;50.824;4.360;2022-09-02T13:39:18;29.50;75.30
2391;DHT22;22957;50.824;4.360;2022-09-02T13:41:45;30.30;73.20
2391;DHT22;22957;50.824;4.360;2022-09-02T13:44:20;29.70;72.40
2391;DHT22;22957;50.824;4.360;2022-09-02T13:46:49;30.00;70.80
2391;DHT22;22957;50.824;4.360;2022-09-02T13:49:18;30.60;70.70
2391;DHT22;22957;50.824;4.360;2022-09-02T13:51:45;30.50;70.40
2391;DHT22;22957;50.824;4.360;2022-09-02T13:54:12;28.90;71.50
2391;DHT22;22957;50.824;4.360;2022-09-02T13:56:38;28.80;73.10
2391;DHT22;22957;50.824;4.360;2022-09-02T13:59:05;29.30;72.10
2391;DHT22;22957;50.824;4.360;2022-09-02T14:01:33;29.60;71.00
2391;DHT22;22957;50.824;4.360;2022-09-02T14:04:13;29.60;71.80
2391;DHT22;22957;50.824;4.360;2022-09-02T14:06:50;28.90;72.70
2391;DHT22;22957;50.824;4.360;2022-09-02T14:09:28;29.40;72.00
2391;DHT22;22957;50.824;4.360;2022-09-02T14:11:55;29.30;69.70
2391;DHT22;22957;50.824;4.360;2022-09-02T14:14:23;29.40;70.50
2391;DHT22;22957;50.824;4.360;2022-09-02T14:16:50;28.10;71.60
2391;DHT22;22957;50.824;4.360;2022-09-02T14:21:50;28.40;73.80
2391;DHT22;22957;50.824;4.360;2022-09-02T14:24:21;28.50;71.30
2391;DHT22;22957;50.824;4.360;2022-09-02T14:26:49;29.10;72.10
2391;DHT22;22957;50.824;4.360;2022-09-02T14:29:18;29.70;71.00
2391;DHT22;22957;50.824;4.360;2022-09-02T14:32:14;29.30;71.20
2391;DHT22;22957;50.824;4.360;2022-09-02T14:34:44;29.90;70.00
2391;DHT22;22957;50.824;4.360;2022-09-02T14:37:25;29.30;70.10
2391;DHT22;22957;50.824;4.360;2022-09-02T14:42:26;28.60;69.10
2391;DHT22;22957;50.824;4.360;2022-09-02T14:44:52;28.30;68.70
2391;DHT22;22957;50.824;4.360;2022-09-02T14:47:19;27.90;69.50
2391;DHT22;22957;50.824;4.360;2022-09-02T14:49:50;28.50;70.10
2391;DHT22;22957;50.824;4.360;2022-09-02T14:52:20;28.30;69.30
2391;DHT22;22957;50.824;4.360;2022-09-02T14:54:49;28.50;68.30
2391;DHT22;22957;50.824;4.360;2022-09-02T14:57:30;28.30;68.10
2391;DHT22;22957;50.824;4.360;2022-09-02T14:59:58;28.20;69.60
2391;DHT22;22957;50.824;4.360;2022-09-02T15:05:02;27.60;68.30
2391;DHT22;22957;50.824;4.360;2022-09-02T15:07:28;27.60;70.50
2391;DHT22;22957;50.824;4.360;2022-09-02T15:09:54;28.10;69.10
2391;DHT22;22957;50.824;4.360;2022-09-02T15:12:25;28.50;68.40
2391;DHT22;22957;50.824;4.360;2022-09-02T15:14:54;28.10;68.50
2391;DHT22;22957;50.824;4.360;2022-09-02T15:17:20;27.80;68.00
2391;DHT22;22957;50.824;4.360;2022-09-02T15:19:46;27.60;66.80
2391;DHT22;22957;50.824;4.360;2022-09-02T15:22:13;27.40;70.20
2391;DHT22;22957;50.824;4.360;2022-09-02T15:24:39;27.70;70.40
2391;DHT22;22957;50.824;4.360;2022-09-02T15:27:11;27.60;67.90
2391;DHT22;22957;50.824;4.360;2022-09-02T15:29:37;27.60;68.90
2391;DHT22;22957;50.824;4.360;2022-09-02T15:32:04;27.80;69.20
2391;DHT22;22957;50.824;4.360;2022-09-02T15:34:31;28.20;68.10
2391;DHT22;22957;50.824;4.360;2022-09-02T15:36:57;27.90;66.70
2391;DHT22;22957;50.824;4.360;2022-09-02T15:39:24;27.20;66.80
2391;DHT22;22957;50.824;4.360;2022-09-02T15:41:52;27.50;68.30
2391;DHT22;22957;50.824;4.360;2022-09-02T15:44:22;27.80;67.00
2391;DHT22;22957;50.824;4.360;2022-09-02T15:46:52;28.10;67.00
2391;DHT22;22957;50.824;4.360;2022-09-02T15:49:19;28.30;67.30
2391;DHT22;22957;50.824;4.360;2022-09-02T15:51:46;28.60;67.70
2391;DHT22;22957;50.824;4.360;2022-09-02T15:54:15;28.60;67.80
2391;DHT22;22957;50.824;4.360;2022-09-02T15:56:42;28.50;67.20
2391;DHT22;22957;50.824;4.360;2022-09-02T15:59:12;28.80;66.80
2391;DHT22;22957;50.824;4.360;2022-09-02T16:01:41;28.70;65.70
2391;DHT22;22957;50.824;4.360;2022-09-02T16:04:11;28.70;66.60
2391;DHT22;22957;50.824;4.360;2022-09-02T16:06:40;28.80;67.00
2391;DHT22;22957;50.824;4.360;2022-09-02T16:09:08;28.60;67.30
2391;DHT22;22957;50.824;4.360;2022-09-02T16:11:42;28.90;67.60
2391;DHT22;22957;50.824;4.360;2022-09-02T16:14:09;29.10;66.80
2391;DHT22;22957;50.824;4.360;2022-09-02T16:16:36;29.10;65.60
2391;DHT22;22957;50.824;4.360;2022-09-02T16:19:04;28.90;66.00
2391;DHT22;22957;50.824;4.360;2022-09-02T16:21:30;28.40;65.00
2391;DHT22;22957;50.824;4.360;2022-09-02T16:23:56;28.20;67.00
2391;DHT22;22957;50.824;4.360;2022-09-02T16:26:33;28.00;66.50
2391;DHT22;22957;50.824;4.360;2022-09-02T16:29:06;28.40;67.20
2391;DHT22;22957;50.824;4.360;2022-09-02T16:31:34;28.70;66.20
2391;DHT22;22957;50.824;4.360;2022-09-02T16:34:06;28.70;66.00
2391;DHT22;22957;50.824;4.360;2022-09-02T16:36:38;27.90;66.20
2391;DHT22;22957;50.824;4.360;2022-09-02T16:39:05;27.90;65.80
2391;DHT22;22957;50.824;4.360;2022-09-02T16:41:35;27.90;66.40
2391;DHT22;22957;50.824;4.360;2022-09-02T16:44:05;27.70;66.20
2391;DHT22;22957;50.824;4.360;2022-09-02T16:46:32;27.60;66.80
2391;DHT22;22957;50.824;4.360;2022-09-02T16:48:59;27.20;67.00
2391;DHT22;22957;50.824;4.360;2022-09-02T16:51:25;27.20;67.70
2391;DHT22;22957;50.824;4.360;2022-09-02T16:53:57;27.20;67.40
2391;DHT22;22957;50.824;4.360;2022-09-02T16:56:23;26.90;68.40
2391;DHT22;22957;50.824;4.360;2022-09-02T16:58:51;27.30;68.70
2391;DHT22;22957;50.824;4.360;2022-09-02T17:01:17;27.10;68.00
2391;DHT22;22957;50.824;4.360;2022-09-02T17:03:44;27.20;68.40
2391;DHT22;22957;50.824;4.360;2022-09-02T17:06:12;27.30;68.60
2391;DHT22;22957;50.824;4.360;2022-09-02T17:08:37;27.30;68.60
2391;DHT22;22957;50.824;4.360;2022-09-02T17:11:26;27.30;69.20
2391;DHT22;22957;50.824;4.360;2022-09-02T17:13:58;27.20;69.30
2391;DHT22;22957;50.824;4.360;2022-09-02T17:16:33;27.40;69.30
2391;DHT22;22957;50.824;4.360;2022-09-02T17:19:00;27.40;69.40
2391;DHT22;22957;50.824;4.360;2022-09-02T17:23:54;27.20;70.10
2391;DHT22;22957;50.824;4.360;2022-09-02T17:26:26;27.10;70.20
2391;DHT22;22957;50.824;4.360;2022-09-02T17:28:53;27.20;70.00
2391;DHT22;22957;50.824;4.360;2022-09-02T17:31:26;26.90;70.80
2391;DHT22;22957;50.824;4.360;2022-09-02T17:33:54;27.30;70.20
2391;DHT22;22957;50.824;4.360;2022-09-02T17:36:21;27.20;70.40
2391;DHT22;22957;50.824;4.360;2022-09-02T17:38:48;27.20;70.40
2391;DHT22;22957;50.824;4.360;2022-09-02T17:41:14;27.30;70.30
2391;DHT22;22957;50.824;4.360;2022-09-02T17:43:58;26.90;70.40
2391;DHT22;22957;50.824;4.360;2022-09-02T17:46:25;26.70;71.20
2391;DHT22;22957;50.824;4.360;2022-09-02T17:48:51;26.40;71.70
2391;DHT22;22957;50.824;4.360;2022-09-02T17:51:16;26.50;72.40
2391;DHT22;22957;50.824;4.360;2022-09-02T17:53:44;26.50;72.40
2391;DHT22;22957;50.824;4.360;2022-09-02T17:59:08;26.80;73.10
2391;DHT22;22957;50.824;4.360;2022-09-02T18:09:58;26.00;74.40
2391;DHT22;22957;50.824;4.360;2022-09-02T18:12:25;26.20;74.60
2391;DHT22;22957;50.824;4.360;2022-09-02T18:15:01;26.20;74.80
2391;DHT22;22957;50.824;4.360;2022-09-02T18:17:36;26.40;74.90
2391;DHT22;22957;50.824;4.360;2022-09-02T18:20:26;26.50;74.10